AirNav   Pilot Hours Calculator
 
 1174 users online  

1TS0 Eagle Air Airport
Oak Island, Texas, USA

GOING TO OAK ISLAND?


FAA INFORMATION EFFECTIVE 20 JUNE 2019

Location

FAA Identifier: 1TS0
Lat/Long: 29-40-13.8120N / 094-40-14.7030W
29-40.230200N / 094-40.245050W
29.6705033 / -94.6707508
(estimated)
Elevation: 8 ft. / 2 m (estimated)
Variation: 05E (1985)
Time zone: UTC -5 (UTC -6 during Standard Time)
Zip code: 77514

Airport Operations

Airport use: Private use. Permission required prior to landing
Activation date: 10/1984
Control tower: no
ARTCC: HOUSTON CENTER
FSS: MONTGOMERY COUNTY FLIGHT SERVICE STATION
Attendance: CONTINUOUS
Segmented circle: no

Nearby radio navigation aids

VOR radial/distance  VOR name  Freq  Var
MHFr021/8.5TRINITY VOR/DME113.6007E
VUHr017/26.2SCHOLES VOR/DME113.0006E
DASr177/31.2DAISETTA VORTAC116.9005E
HUBr083/31.6HOBBY VOR/DME117.1005E
SBIr261/33.0SABINE PASS VOR/DME115.4007E
BPTr237/37.9BEAUMONT VOR/DME114.5007E
IAHr111/39.1HUMBLE VORTAC116.6005E

 
NDB name  Hdg/Dist  Freq  Var  ID
GALVESTON004/20.720608EGLS --. .-.. ...
GOODHUE218/33.936807EGDE --. -.. .

Airport Services

Runway Information

Runway E/W

Dimensions: 2300 x 60 ft. / 701 x 18 m
Surface: turf
RUNWAY E  RUNWAY W
Traffic pattern: leftleft
Obstructions: 35 ft. plines, 90 ft. from runwaynone

Airport Ownership and Management from official FAA records

Ownership: Privately-owned
Owner: J L STECGALL
BOX 627
ANAHUAC, TX 77514
Phone 713-471-2496
Manager: J L STECGALL
BOX 627
ANAHUAC, TX 77514
Phone 713-471-2496

Airport Operational Statistics

Aircraft based on the field: 1
Single engine airplanes: 1
    

Additional Remarks

FOR CD CTC HOUSTON ARTCC AT 281-230-5622.

Instrument Procedures

There are no published instrument procedures at 1TS0.

Some nearby airports with instrument procedures:

T00 - Chambers County Airport (6 nm N)
54T - RWJ Airpark (11 nm NW)
KHPY - Baytown Airport (16 nm NW)
T41 - La Porte Municipal Airport (21 nm W)
T78 - Liberty Municipal Airport (24 nm N)
 
Loc | Ops | Rwys | IFR | FBO | Links
Com | Nav | Svcs | Stats | Notes
Area around 1TS0 (Eagle Air Airport)
 
Road maps at: MapQuest Bing Google
 
Aerial photo
No photo
 
Sectional chart

 
Airport distance calculator
Flying to Eagle Air Airport? Find the distance to fly.

From to 1TS0

Sunrise and sunset
Times for 24-Jun-2019
 Local
(UTC-5)
 Zulu
(UTC)
Morning civil twilight05:5310:53
Sunrise06:2111:21
Sunset20:2201:22
Evening civil twilight20:4901:49

Current date and time
Zulu (UTC)  24-Jun-2019 23:06:12
Local (UTC-5)  24-Jun-2019 18:06:12
 
METAR
KEFD 
26nm W 
242250Z 23009KT 10SM BKN200 BKN250 29/22 A2990
KGLS 
26nm SW 
242252Z AUTO 18021KT 10SM FEW120 29/19 A2990 RMK AO2 PK WND 17028/2246 SLP126 T02890194
KXIH 
30nm S 
242255Z AUTO 19019G25KT 10SM CLR 29/21 A2988 RMK A01
KLVJ 
32nm W 
242253Z AUTO 21005KT 10SM CLR 29/22 A2994 RMK AO2 SLP137 T02940217
KHOU 
32nm W 
242253Z 21008KT 10SM FEW035 SCT180 BKN250 29/22 A2992 RMK AO2 SLP136 T02940217
KBMT 
34nm NE 
242255Z AUTO 24003KT 10SM CLR 28/22 A2993 RMK AO2 T02800220
KBPT 
37nm NE 
242253Z 30005KT 10SM CLR 28/23 A2991 RMK AO2 SLP129 T02780233
KIAH 
41nm NW 
242253Z 19008KT 10SM FEW035 SCT190 BKN250 30/22 A2993 RMK AO2 SLP135 T03000222
KAXH 
43nm W 
242255Z AUTO 26003KT 10SM CLR 29/23 A2995 RMK AO2 T02860233
K6R3 
45nm NW 
242255Z AUTO 19006KT 7SM CLR 30/24 A2993 RMK AO2 T02980239
TAF
KEFD 
26nm W 
242215Z 2422/2602 16012KT 9999 FEW025 QNH2986INS BECMG 2423/2424 15006KT 8000 BR SCT010 QNH2990INS BECMG 2504/2505 VRB06KT 4800 BR BKN015 QNH2992INS BECMG 2515/2516 16010G15KT 9999 NSW SCT025 BKN150 QNH2996INS TEMPO 2519/2523 16015G25KT 4800 -TSRA OVC015CB BECMG 2523/2524 15009KT 9999 BKN015 QNH2997INS TX32/2520Z TN21/2511Z
KGLS 
26nm SW 
242210Z 2422/2518 15015KT P6SM FEW030 BKN120 FM250000 14012KT P6SM SCT250 FM250600 15009KT P6SM VCSH SCT020 BKN150 FM251300 16013KT P6SM VCSH SCT025 BKN100
NOTAMs
Click for the latest NOTAMs
NOTAMs are issued by the DoD/FAA and will open in a separate window not controlled by AirNav.

 

 
 

Would you like to see your business listed on this page?

 If your business provides an interesting product or service to pilots, flight crews, aircraft, or users of the Eagle Air Airport, you should consider listing it here.  To start the listing process, click on the button below
 
Add a business
 

Other Pages about Eagle Air Airport

Update a link
 
Copyright © AirNav, LLC. All rights reserved. Privacy Policy  Contact